Time;durP1;ratioP1;P1;durP2;ratioP2;P2;SDS_P1;SDS_P2;PMS_P1;PMS_P2;Temp;Humidity;BMP_temperature;BMP_pressure;BME280_temperature;BME280_humidity;BME280_pressure;Samples;Min_cycle;Max_cycle;Signal;HPM_P1;HPM_P2
2022/04/17 00:01:48;;;;;;;2.25;1.67;;;;;;;;;;5009842;28;20022;-83
2022/04/17 00:04:15;;;;;;;2.08;1.00;;;;;;;;;;5009438;28;20642;-85
2022/04/17 00:06:41;;;;;;;2.03;0.95;;;;;;;;;;5007813;28;20026;-84
2022/04/17 00:09:07;;;;;;;1.90;1.50;;;;;;;;;;5010210;28;20044;-82
2022/04/17 00:11:34;;;;;;;2.30;1.50;;;;;;;;;;5011619;28;20045;-81
2022/04/17 00:14:00;;;;;;;2.42;1.00;;;;;;;;;;5008851;28;20053;-79
2022/04/17 00:16:26;;;;;;;2.20;0.90;;;;;;;;;;5010770;28;20018;-80
2022/04/17 00:18:52;;;;;;;2.17;1.23;;;;;;;;;;5009938;28;20022;-81
2022/04/17 00:21:20;;;;;;;4.20;1.10;;;;;;;;;;5009551;28;20022;-83
2022/04/17 00:23:46;;;;;;;3.35;1.40;;;;;;;;;;5009044;28;20063;-81
2022/04/17 00:26:12;;;;;;;2.83;1.63;;;;;;;;;;5006970;28;20409;-82
2022/04/17 00:28:39;;;;;;;3.53;1.63;;;;;;;;;;5013761;28;20029;-82
2022/04/17 00:31:05;;;;;;;2.20;1.63;;;;;;;;;;5012454;28;20500;-84
2022/04/17 00:33:31;;;;;;;1.92;1.45;;;;;;;;;;5015853;28;20018;-82
2022/04/17 00:35:58;;;;;;;1.92;1.00;;;;;;;;;;5015333;28;20037;-82
2022/04/17 00:38:24;;;;;;;1.92;1.02;;;;;;;;;;5025029;28;20030;-84
2022/04/17 00:40:50;;;;;;;2.45;1.50;;;;;;;;;;5010606;28;20044;-82
2022/04/17 00:43:33;;;;;;;4.20;1.65;;;;;;;;;;5013643;28;20022;-81
2022/04/17 00:45:59;;;;;;;2.35;1.23;;;;;;;;;;5009704;28;20037;-81
2022/04/17 00:48:25;;;;;;;1.27;1.15;;;;;;;;;;5016322;28;20044;-81
2022/04/17 00:50:53;;;;;;;2.83;1.13;;;;;;;;;;5012814;28;20052;-81
2022/04/17 00:53:21;;;;;;;2.13;1.50;;;;;;;;;;5015052;28;20034;-86
2022/04/17 00:55:47;;;;;;;1.23;1.08;;;;;;;;;;5017890;28;20062;-84
2022/04/17 00:58:14;;;;;;;1.75;1.17;;;;;;;;;;5013225;28;20026;-81
2022/04/17 01:00:44;;;;;;;2.55;1.20;;;;;;;;;;5013412;28;20057;-80
2022/04/17 01:03:13;;;;;;;3.28;1.88;;;;;;;;;;5011083;28;20022;-79
2022/04/17 01:05:42;;;;;;;2.58;1.55;;;;;;;;;;5013279;28;20034;-81
2022/04/17 01:08:09;;;;;;;2.47;1.60;;;;;;;;;;5012867;28;20065;-80
2022/04/17 01:10:35;;;;;;;1.15;0.77;;;;;;;;;;5010018;28;20049;-84
2022/04/17 01:13:03;;;;;;;3.35;1.27;;;;;;;;;;5012660;28;20097;-83
2022/04/17 01:15:29;;;;;;;2.90;0.88;;;;;;;;;;5012039;28;20037;-81
2022/04/17 01:17:55;;;;;;;2.13;1.05;;;;;;;;;;5013481;28;20052;-80
2022/04/17 01:20:22;;;;;;;1.85;1.08;;;;;;;;;;5014372;28;20038;-80
2022/04/17 01:22:49;;;;;;;1.85;0.88;;;;;;;;;;5018082;28;20093;-82
2022/04/17 01:28:00;;;;;;;1.00;0.90;;;;;;;;;;5008420;28;20033;-79
2022/04/17 01:30:26;;;;;;;0.98;0.70;;;;;;;;;;5008971;28;20038;-82
2022/04/17 01:32:52;;;;;;;2.22;1.58;;;;;;;;;;5009949;28;20033;-79
2022/04/17 01:35:18;;;;;;;2.92;1.00;;;;;;;;;;5011478;28;20048;-81
2022/04/17 01:37:48;;;;;;;3.08;1.38;;;;;;;;;;5013803;28;20021;-79
2022/04/17 01:40:14;;;;;;;2.22;1.25;;;;;;;;;;5012109;28;20363;-80
2022/04/17 01:42:40;;;;;;;1.65;1.48;;;;;;;;;;5011752;28;20022;-81
2022/04/17 01:45:06;;;;;;;1.77;1.40;;;;;;;;;;5006428;28;20110;-82
2022/04/17 01:47:32;;;;;;;1.42;1.23;;;;;;;;;;5007199;28;20069;-81
2022/04/17 01:49:59;;;;;;;3.30;1.25;;;;;;;;;;5010843;28;20104;-79
2022/04/17 01:52:25;;;;;;;1.73;1.23;;;;;;;;;;5007269;28;20026;-82
2022/04/17 01:54:51;;;;;;;2.78;1.75;;;;;;;;;;5009161;28;20115;-82
2022/04/17 01:57:17;;;;;;;1.70;1.33;;;;;;;;;;5011841;28;20080;-80
2022/04/17 01:59:44;;;;;;;3.60;1.40;;;;;;;;;;5010371;28;20058;-85
2022/04/17 02:02:09;;;;;;;2.22;1.35;;;;;;;;;;5011866;28;20036;-84
2022/04/17 02:04:36;;;;;;;1.85;1.00;;;;;;;;;;5006517;28;20030;-81
2022/04/17 02:07:05;;;;;;;1.88;1.33;;;;;;;;;;5011593;28;20057;-82
2022/04/17 02:09:31;;;;;;;4.32;1.25;;;;;;;;;;5010528;28;20025;-81
2022/04/17 02:11:57;;;;;;;2.40;1.45;;;;;;;;;;5009597;28;20101;-82
2022/04/17 02:14:23;;;;;;;2.85;1.40;;;;;;;;;;5006180;28;20081;-81
2022/04/17 02:16:49;;;;;;;3.10;1.58;;;1.80;99.90;;;;;;5008574;28;20068;-81
2022/04/17 02:19:15;;;;;;;2.85;1.42;;;;;;;;;;5010703;28;20030;-81
2022/04/17 02:21:41;;;;;;;2.47;1.17;;;;;;;;;;5011510;28;20058;-82
2022/04/17 02:24:07;;;;;;;2.35;1.45;;;;;;;;;;5011033;28;20034;-83
2022/04/17 02:26:33;;;;;;;8.27;1.65;;;;;;;;;;5009517;28;20536;-85
2022/04/17 02:29:00;;;;;;;1.33;1.23;;;;;;;;;;5005551;28;20026;-78
2022/04/17 02:31:26;;;;;;;2.28;1.10;;;;;;;;;;5014061;28;20050;-83
2022/04/17 02:33:52;;;;;;;3.83;1.15;;;;;;;;;;5006915;28;20030;-83
2022/04/17 02:36:19;;;;;;;2.88;1.60;;;;;;;;;;5012305;28;20030;-81
2022/04/17 02:38:45;;;;;;;3.15;1.83;;;;;;;;;;5007577;28;20053;-82
2022/04/17 02:41:11;;;;;;;1.75;1.13;;;;;;;;;;5012998;28;20040;-85
2022/04/17 02:43:37;;;;;;;2.33;1.65;;;;;;;;;;5003886;28;20062;-83
2022/04/17 02:46:03;;;;;;;2.78;1.40;;;;;;;;;;5007233;28;20064;-82
2022/04/17 02:48:29;;;;;;;8.02;2.00;;;;;;;;;;5006479;28;20505;-87
2022/04/17 02:50:55;;;;;;;1.77;1.33;;;;;;;;;;5008791;28;20042;-83
2022/04/17 02:53:21;;;;;;;1.40;1.30;;;;;;;;;;5010582;28;20096;-80
2022/04/17 02:55:47;;;;;;;3.92;1.23;;;;;;;;;;5011297;28;20133;-81
2022/04/17 02:58:14;;;;;;;1.38;1.13;;;;;;;;;;5008581;28;20025;-83
2022/04/17 03:06:10;;;;;;;1.63;1.10;;;;;;;;;;5012768;28;20045;-85
2022/04/17 03:08:38;;;;;;;1.98;1.00;;;;;;;;;;5008262;28;20022;-84
2022/04/17 03:11:03;;;;;;;3.85;1.70;;;;;;;;;;5009332;28;20046;-80
2022/04/17 03:13:29;;;;;;;2.15;1.50;;;;;;;;;;5007736;28;20033;-80
2022/04/17 03:15:55;;;;;;;2.22;1.58;;;;;;;;;;5007619;28;20030;-80
2022/04/17 03:18:21;;;;;;;1.38;1.02;;;;;;;;;;5010332;28;20053;-80
2022/04/17 03:20:47;;;;;;;1.80;1.25;;;;;;;;;;5010088;28;20038;-83
2022/04/17 03:23:14;;;;;;;1.98;1.35;;;;;;;;;;5013083;28;20030;-82
2022/04/17 03:25:40;;;;;;;2.80;1.15;;;;;;;;;;5004586;28;20029;-78
2022/04/17 03:28:06;;;;;;;2.25;1.52;;;;;;;;;;5006825;28;20033;-80
2022/04/17 03:30:32;;;;;;;2.67;1.58;;;;;;;;;;5004348;28;20034;-79
2022/04/17 03:32:59;;;;;;;2.85;1.17;;;;;;;;;;5008720;28;20080;-82
2022/04/17 03:35:26;;;;;;;1.95;1.70;;;;;;;;;;5010384;28;20030;-85
2022/04/17 03:37:53;;;;;;;4.53;2.50;;;;;;;;;;5001241;28;20025;-82
2022/04/17 03:40:19;;;;;;;1.83;1.17;;;;;;;;;;5010223;28;20029;-82
2022/04/17 03:42:46;;;;;;;1.70;1.33;;;;;;;;;;5006195;28;20448;-80
2022/04/17 03:45:17;;;;;;;4.57;1.85;;;;;;;;;;5006746;28;20037;-82
2022/04/17 03:47:43;;;;;;;2.28;1.50;;;;;;;;;;5007735;28;20040;-81
2022/04/17 03:50:09;;;;;;;3.45;1.88;;;;;;;;;;5011581;28;20061;-81
2022/04/17 03:52:42;;;;;;;1.92;1.55;;;;;;;;;;5005944;28;20038;-80
2022/04/17 03:55:08;;;;;;;;;;;;;;;;;;5007274;28;20034;-80
2022/04/17 03:57:34;;;;;;;1.88;1.38;;;;;;;;;;5010408;28;20291;-81
2022/04/17 04:00:00;;;;;;;3.20;1.63;;;;;;;;;;5007020;28;20909;-82
2022/04/17 04:02:28;;;;;;;2.42;1.35;;;;;;;;;;5010107;28;20426;-80
2022/04/17 04:04:54;;;;;;;4.38;2.00;;;;;;;;;;5013107;28;20038;-83
2022/04/17 04:07:20;;;;;;;2.13;1.23;;;;;;;;;;5010078;28;20509;-81
2022/04/17 04:09:46;;;;;;;3.75;1.95;;;;;;;;;;5010417;28;20128;-79
2022/04/17 04:12:12;;;;;;;2.28;1.38;;;;;;;;;;5010733;28;20038;-81
2022/04/17 04:14:38;;;;;;;7.78;1.98;;;;;;;;;;5013946;28;20036;-82
2022/04/17 04:17:04;;;;;;;3.25;1.98;;;;;;;;;;5014155;28;20049;-84
2022/04/17 04:19:30;;;;;;;2.30;1.60;;;;;;;;;;5012095;28;20393;-79
2022/04/17 04:21:56;;;;;;;2.45;1.48;;;;;;;;;;5009045;28;20022;-81
2022/04/17 04:24:24;;;;;;;3.47;1.73;;;;;;;;;;5013890;28;20037;-80
2022/04/17 04:29:36;;;;;;;3.13;2.20;;;0.80;99.90;;;;;;5014606;28;20048;-83
2022/04/17 04:32:02;;;;;;;4.20;1.60;;;;;;;;;;5012061;28;20393;-79
2022/04/17 04:34:28;;;;;;;3.83;2.15;;;;;;;;;;5013263;28;20112;-79
2022/04/17 04:36:54;;;;;;;2.78;1.58;;;;;;;;;;5013691;28;20401;-86
2022/04/17 04:39:20;;;;;;;2.67;1.65;;;;;;;;;;5012034;28;20018;-83
2022/04/17 04:41:46;;;;;;;2.42;1.67;;;;;;;;;;5011071;28;20060;-83
2022/04/17 04:44:13;;;;;;;2.83;1.40;;;;;;;;;;5013803;28;20026;-82
2022/04/17 04:46:39;;;;;;;2.40;1.73;;;;;;;;;;5015783;28;20041;-81
2022/04/17 04:51:50;;;;;;;2.53;1.70;;;;;;;;;;5009486;28;20064;-81
2022/04/17 04:54:17;;;;;;;4.95;2.17;;;;;;;;;;5011304;28;20044;-84
2022/04/17 04:56:43;;;;;;;3.30;1.73;;;;;;;;;;5009273;28;20398;-82
2022/04/17 04:59:09;;;;;;;1.50;1.40;;;;;;;;;;5007150;28;20081;-81
2022/04/17 05:01:35;;;;;;;2.30;1.42;;;;;;;;;;5012482;28;20065;-84
2022/04/17 05:04:01;;;;;;;1.73;1.27;;;;;;;;;;5009168;28;20030;-84
2022/04/17 05:06:27;;;;;;;2.78;1.48;;;;;;;;;;5010797;28;20084;-84
2022/04/17 05:08:53;;;;;;;2.33;1.63;;;;;;;;;;5005156;28;20025;-80
2022/04/17 05:11:20;;;;;;;2.42;1.70;;;;;;;;;;5012327;28;20076;-80
2022/04/17 05:13:46;;;;;;;1.67;1.17;;;;;;;;;;5000719;28;20050;-81
2022/04/17 05:16:13;;;;;;;3.17;1.58;;;;;;;;;;5007428;28;20040;-82
2022/04/17 05:18:39;;;;;;;2.40;1.42;;;;;;;;;;5009183;28;20018;-79
2022/04/17 05:21:06;;;;;;;3.22;1.80;;;;;;;;;;5011583;28;20045;-79
2022/04/17 05:23:32;;;;;;;3.67;1.98;;;;;;;;;;5005385;28;20030;-80
2022/04/17 05:25:59;;;;;;;4.25;1.48;;;;;;;;;;5012318;28;20037;-78
2022/04/17 05:28:25;;;;;;;2.10;1.77;;;;;;;;;;5010220;28;20038;-81
2022/04/17 05:30:51;;;;;;;2.42;1.88;;;;;;;;;;5009170;28;20066;-83
2022/04/17 05:33:21;;;;;;;3.08;1.80;;;;;;;;;;5005602;28;20030;-80
2022/04/17 05:35:47;;;;;;;7.78;2.45;;;;;;;;;;5013404;28;20033;-80
2022/04/17 05:38:13;;;;;;;4.05;2.03;;;;;;;;;;5005223;28;20393;-84
2022/04/17 05:40:41;;;;;;;1.55;1.17;;;;;;;;;;5009783;28;20033;-85
2022/04/17 05:43:07;;;;;;;3.55;1.63;;;;;;;;;;5003653;28;20037;-81
2022/04/17 05:45:33;;;;;;;3.10;1.70;;;;;;;;;;5002689;28;20029;-80
2022/04/17 05:47:59;;;;;;;4.47;2.08;;;;;;;;;;5010151;28;20596;-81
2022/04/17 05:50:25;;;;;;;3.00;1.60;;;;;;;;;;5010368;28;20041;-82
2022/04/17 05:52:51;;;;;;;3.85;2.50;;;;;;;;;;5012389;28;20072;-82
2022/04/17 05:55:17;;;;;;;2.35;1.27;;;;;;;;;;5006365;28;20041;-81
2022/04/17 05:57:43;;;;;;;1.42;1.33;;;;;;;;;;5006408;28;20036;-82
2022/04/17 06:00:09;;;;;;;3.08;1.60;;;;;;;;;;4998770;28;20065;-83
2022/04/17 06:02:36;;;;;;;4.30;2.20;;;;;;;;;;5008612;28;20045;-82
2022/04/17 06:05:05;;;;;;;2.67;1.67;;;;;;;;;;4999537;28;20046;-84
2022/04/17 06:07:32;;;;;;;3.83;2.08;;;;;;;;;;4999174;28;20033;-82
2022/04/17 06:10:04;;;;;;;6.50;1.80;;;;;;;;;;5003590;28;20725;-85
2022/04/17 06:12:31;;;;;;;2.20;1.27;;;;;;;;;;5006981;28;20113;-81
2022/04/17 06:14:56;;;;;;;4.38;2.30;;;;;;;;;;5004692;28;20030;-82
2022/04/17 06:17:22;;;;;;;3.28;1.73;;;;;;;;;;5002356;28;20477;-82
2022/04/17 06:19:48;;;;;;;4.57;2.40;;;;;;;;;;5003825;28;20038;-79
2022/04/17 06:22:14;;;;;;;3.17;2.22;;;;;;;;;;5005173;28;20037;-82
2022/04/17 06:24:40;;;;;;;3.85;1.92;;;;;;;;;;5009317;28;20567;-80
2022/04/17 06:27:06;;;;;;;1.65;1.55;;;;;;;;;;5008503;28;20033;-81
2022/04/17 06:29:32;;;;;;;3.60;1.90;;;;;;;;;;5004683;28;20118;-81
2022/04/17 06:31:58;;;;;;;3.33;1.42;;;;;;;;;;5005792;28;20017;-81
2022/04/17 06:34:24;;;;;;;5.47;1.63;;;;;;;;;;5005654;28;20029;-81
2022/04/17 06:36:50;;;;;;;3.05;1.52;;;;;;;;;;5003536;28;20037;-79
2022/04/17 06:39:16;;;;;;;1.55;1.33;;;;;;;;;;5001332;28;20029;-79
2022/04/17 06:41:44;;;;;;;;;;;;;;;;;;5010728;28;20046;-79
2022/04/17 06:44:11;;;;;;;2.47;1.65;;;;;;;;;;5006720;28;19913;-80
2022/04/17 06:46:46;;;;;;;2.30;1.30;;;;;;;;;;5059834;28;20440;-78
2022/04/17 06:49:13;;;;;;;4.05;1.92;;;4.30;99.90;;;;;;5061419;28;20048;-79
2022/04/17 06:51:40;;;;;;;2.60;1.67;;;;;;;;;;5066290;28;20519;-80
2022/04/17 06:54:06;;;;;;;2.65;1.55;;;;;;;;;;5064820;28;20061;-80
2022/04/17 06:56:32;;;;;;;3.58;1.80;;;;;;;;;;5054060;28;20091;-77
2022/04/17 06:58:58;;;;;;;6.35;1.55;;;;;;;;;;5053558;28;20113;-80
2022/04/17 07:01:24;;;;;;;1.42;1.10;;;;;;;;;;5055050;28;20439;-81
2022/04/17 07:03:50;;;;;;;2.47;1.83;;;;;;;;;;5055639;28;20063;-80
2022/04/17 07:06:16;;;;;;;4.07;2.13;;;;;;;;;;5048394;28;20066;-82
2022/04/17 07:08:42;;;;;;;4.50;2.25;;;;;;;;;;5050235;28;20025;-81
2022/04/17 07:11:08;;;;;;;2.80;1.40;;;;;;;;;;5055947;28;20458;-78
2022/04/17 07:13:34;;;;;;;2.13;1.33;;;;;;;;;;5059949;28;20064;-78
2022/04/17 07:16:00;;;;;;;2.25;1.17;;;;;;;;;;5060136;28;20029;-79
2022/04/17 07:18:26;;;;;;;2.72;1.33;;;;;;;;;;5055819;28;20591;-80
2022/04/17 07:20:52;;;;;;;4.68;1.42;;;;;;;;;;5051580;28;20468;-84
2022/04/17 07:23:18;;;;;;;1.40;0.80;;;;;;;;;;5053076;28;20061;-81
2022/04/17 07:25:44;;;;;;;2.45;0.88;;;;;;;;;;5056779;28;20230;-81
2022/04/17 07:28:14;;;;;;;1.48;0.93;;;;;;;;;;5053278;28;20037;-79
2022/04/17 07:30:40;;;;;;;1.92;1.33;;;;;;;;;;5056946;28;20661;-79
2022/04/17 07:33:06;;;;;;;1.92;0.90;;;;;;;;;;5061400;28;20056;-79
2022/04/17 07:35:32;;;;;;;3.72;1.02;;;;;;;;;;5056397;28;20060;-78
2022/04/17 07:37:59;;;;;;;2.25;0.98;;;;;;;;;;5050563;28;20054;-81
2022/04/17 07:40:26;;;;;;;1.70;0.82;;;;;;;;;;5049628;28;20097;-81
2022/04/17 07:42:53;;;;;;;3.55;2.03;;;;;;;;;;5054023;28;20021;-86
2022/04/17 07:45:20;;;;;;;1.20;0.65;;;;;;;;;;5055317;28;20637;-84
2022/04/17 07:47:46;;;;;;;5.25;0.90;;;;;;;;;;5059186;28;20486;-79
2022/04/17 07:50:14;;;;;;;1.63;0.60;;;;;;;;;;5065680;28;20599;-78
2022/04/17 07:52:41;;;;;;;3.08;0.85;;;;;;;;;;5054565;28;20039;-81
2022/04/17 07:55:08;;;;;;;1.90;0.80;;;;;;;;;;5059199;28;20027;-82
2022/04/17 07:57:55;;;;;;;2.30;0.60;;;;;;;;;;5043136;28;20030;-81
2022/04/17 08:00:21;;;;;;;0.98;0.50;;;;;;;;;;5045691;28;20127;-80
2022/04/17 08:03:06;;;;;;;1.08;0.68;;;;;;;;;;5044261;28;20352;-79
2022/04/17 08:05:32;;;;;;;2.10;0.80;;;;;;;;;;5039573;28;20040;-82
2022/04/17 08:07:58;;;;;;;1.75;0.95;;;;;;;;;;5044115;28;20029;-80
2022/04/17 08:10:24;;;;;;;3.60;0.70;;;;;;;;;;5048145;28;20041;-80
2022/04/17 08:12:51;;;;;;;3.10;0.70;;;;;;;;;;5048568;28;20139;-79
2022/04/17 08:15:17;;;;;;;3.17;1.40;;;;;;;;;;5045964;28;20044;-79
2022/04/17 08:17:43;;;;;;;2.35;1.10;;;;;;;;;;5034608;28;20033;-79
2022/04/17 08:20:09;;;;;;;1.70;1.00;;;;;;;;;;5040233;28;20115;-79
2022/04/17 08:22:35;;;;;;;1.40;0.70;;;;;;;;;;5040044;28;20079;-77
2022/04/17 08:25:01;;;;;;;1.13;0.70;;;;;;;;;;5031895;28;20044;-76
2022/04/17 08:27:27;;;;;;;1.13;0.50;;;;;;;;;;5028983;28;20503;-80
2022/04/17 08:29:53;;;;;;;5.38;0.80;;;;;;;;;;5036982;28;20103;-78
2022/04/17 08:32:19;;;;;;;4.72;0.50;;;;;;;;;;5041380;28;20025;-80
2022/04/17 08:34:45;;;;;;;1.40;0.50;;;;;;;;;;5044438;28;20031;-79
2022/04/17 08:37:11;;;;;;;1.75;0.80;;;;;;;;;;5041067;28;20033;-80
2022/04/17 08:39:37;;;;;;;1.77;0.85;;;;;;;;;;5036153;28;20033;-79
2022/04/17 08:42:05;;;;;;;1.50;0.70;;;;;;;;;;5039934;28;20419;-79
2022/04/17 08:44:31;;;;;;;2.70;1.20;;;;;;;;;;5050658;28;20473;-78
2022/04/17 08:46:57;;;;;;;2.60;0.90;;;;;;;;;;5045757;28;20122;-79
2022/04/17 08:49:24;;;;;;;1.38;0.60;;;;;;;;;;5050489;28;20025;-79
2022/04/17 08:51:53;;;;;;;3.05;0.77;;;;;;;;;;5042822;28;20075;-79
2022/04/17 08:54:19;;;;;;;0.88;0.40;;;;;;;;;;5039299;28;20063;-79
2022/04/17 08:56:45;;;;;;;1.50;0.57;;;;;;;;;;5042204;28;20029;-79
2022/04/17 08:59:11;;;;;;;4.57;0.70;;;;;;;;;;5045373;28;20110;-79
2022/04/17 09:01:37;;;;;;;1.65;0.60;;;;;;;;;;5044570;28;20021;-80
2022/04/17 09:04:04;;;;;;;0.98;0.50;;;;;;;;;;5045480;28;20087;-80
2022/04/17 09:06:30;;;;;;;3.65;0.82;;;;;;;;;;5038446;28;20390;-80
2022/04/17 09:08:59;;;;;;;2.30;0.40;;;;;;;;;;5034307;28;20519;-79
2022/04/17 09:11:26;;;;;;;6.57;0.80;;;;;;;;;;5044817;28;20116;-78
2022/04/17 09:13:54;;;;;;;1.25;0.60;;;;;;;;;;5040264;28;20025;-79
2022/04/17 09:16:26;;;;;;;1.02;0.57;;;;;;;;;;5043925;28;20039;-79
2022/04/17 09:18:52;;;;;;;1.08;0.52;;;;;;;;;;5035794;28;20070;-78
2022/04/17 09:21:32;;;;;;;2.45;1.30;;;;;;;;;;5043764;28;20475;-78
2022/04/17 09:24:18;;;;;;;1.38;0.52;;;;;;;;;;5036981;28;20144;-79
2022/04/17 09:26:58;;;;;;;1.42;0.70;;;;;;;;;;5049662;28;20048;-79
2022/04/17 09:29:32;;;;;;;1.70;1.48;;;;;;;;;;5041376;28;20123;-78
2022/04/17 09:32:02;;;;;;;1.25;0.68;;;;;;;;;;5043436;28;20054;-78
2022/04/17 09:34:29;;;;;;;1.38;0.60;;;;;;;;;;5042871;28;20027;-79
2022/04/17 09:36:59;;;;;;;1.45;0.80;;;14.30;67.70;;;;;;5040593;28;20076;-78
2022/04/17 09:39:31;;;;;;;0.95;0.68;;;;;;;;;;5035301;28;20029;-78
2022/04/17 09:41:58;;;;;;;6.15;0.70;;;;;;;;;;5043482;28;20036;-80
2022/04/17 09:44:34;;;;;;;1.25;0.95;;;;;;;;;;5036382;28;20457;-79
2022/04/17 09:47:00;;;;;;;1.30;0.60;;;;;;;;;;5030479;28;20060;-78
2022/04/17 09:49:26;;;;;;;0.80;0.50;;;;;;;;;;5023308;28;20587;-79
2022/04/17 09:52:08;;;;;;;2.03;0.80;;;;;;;;;;5039168;28;20033;-77
2022/04/17 09:54:34;;;;;;;1.48;0.60;;;;;;;;;;5042854;28;20037;-77
2022/04/17 09:57:00;;;;;;;2.03;0.55;;;;;;;;;;5037870;28;20063;-76
2022/04/17 09:59:30;;;;;;;5.28;0.70;;;;;;;;;;5034486;28;20479;-78
2022/04/17 10:01:57;;;;;;;1.30;0.50;;;15.80;67.10;;;;;;5040990;28;20024;-78
2022/04/17 10:04:24;;;;;;;5.05;1.15;;;;;;;;;;5046403;28;20645;-77
2022/04/17 10:06:51;;;;;;;1.92;0.75;;;;;;;;;;5040085;28;20025;-78
2022/04/17 10:09:17;;;;;;;1.98;0.70;;;;;;;;;;5038416;28;20087;-79
2022/04/17 10:11:44;;;;;;;4.15;0.65;;;;;;;;;;5040452;28;20035;-80
2022/04/17 10:14:10;;;;;;;2.47;0.77;;;;;;;;;;5039748;28;20021;-78
2022/04/17 10:16:41;;;;;;;4.25;0.63;;;;;;;;;;5042467;28;20492;-79
2022/04/17 10:19:11;;;;;;;2.03;0.82;;;;;;;;;;5038182;28;20071;-79
2022/04/17 10:21:38;;;;;;;1.60;0.65;;;;;;;;;;5043199;28;20072;-79
2022/04/17 10:24:05;;;;;;;1.17;0.55;;;;;;;;;;5041069;28;20346;-79
2022/04/17 10:26:41;;;;;;;2.15;0.52;;;;;;;;;;5034256;28;20033;-79
2022/04/17 10:29:08;;;;;;;5.15;0.60;;;;;;;;;;5032322;28;20025;-79
2022/04/17 10:31:41;;;;;;;2.25;0.68;;;;;;;;;;5041900;28;20610;-79
2022/04/17 10:34:23;;;;;;;3.75;0.90;;;;;;;;;;5031656;28;20052;-77
2022/04/17 10:37:01;;;;;;;1.42;0.70;;;;;;;;;;5033589;28;20053;-79
2022/04/17 10:39:35;;;;;;;1.65;0.50;;;;;;;;;;5030153;28;20048;-83
2022/04/17 10:42:01;;;;;;;1.63;0.60;;;;;;;;;;5039594;28;20148;-81
2022/04/17 10:44:31;;;;;;;1.23;0.65;;;;;;;;;;5042561;28;20114;-82
2022/04/17 10:46:57;;;;;;;1.30;0.73;;;;;;;;;;5028803;28;20441;-82
2022/04/17 10:49:28;;;;;;;1.02;0.40;;;;;;;;;;5036791;28;20116;-80
2022/04/17 10:51:55;;;;;;;0.85;0.40;;;;;;;;;;5048493;28;20021;-79
2022/04/17 10:54:21;;;;;;;2.05;0.85;;;;;;;;;;5042705;28;20116;-81
2022/04/17 10:57:08;;;;;;;1.25;0.63;;;;;;;;;;5031199;28;20026;-83
2022/04/17 10:59:34;;;;;;;2.50;0.63;;;;;;;;;;5035969;28;20631;-81
2022/04/17 11:02:23;;;;;;;1.48;0.80;;;;;;;;;;5034853;28;20025;-81
2022/04/17 11:04:50;;;;;;;4.72;0.85;;;;;;;;;;5036423;28;20041;-84
2022/04/17 11:07:16;;;;;;;1.10;0.70;;;;;;;;;;5037720;28;20040;-81
2022/04/17 11:09:44;;;;;;;1.85;0.70;;;;;;;;;;5028027;28;20033;-82
2022/04/17 11:12:10;;;;;;;1.10;0.63;;;;;;;;;;5033761;28;20080;-81
2022/04/17 11:14:38;;;;;;;0.93;0.43;;;;;;;;;;5037202;28;20057;-82
2022/04/17 11:17:08;;;;;;;1.58;0.52;;;;;;;;;;5042800;28;20029;-82
2022/04/17 11:19:35;;;;;;;1.73;0.60;;;;;;;;;;5044573;28;20097;-85
2022/04/17 11:22:02;;;;;;;2.08;0.70;;;;;;;;;;5044315;28;20036;-80
2022/04/17 11:24:29;;;;;;;1.58;0.77;;;;;;;;;;5042740;28;20029;-82
2022/04/17 11:26:58;;;;;;;2.40;0.63;;;;;;;;;;5035856;28;20075;-82
2022/04/17 11:29:53;;;;;;;4.22;0.85;;;;;;;;;;5038321;28;20520;-83
2022/04/17 11:32:19;;;;;;;3.60;1.08;;;;;;;;;;5033435;28;20045;-83
2022/04/17 11:34:47;;;;;;;0.65;0.35;;;;;;;;;;5040290;28;20149;-82
2022/04/17 11:37:16;;;;;;;5.22;0.60;;;;;;;;;;5042677;28;20039;-80
2022/04/17 11:39:42;;;;;;;1.00;0.52;;;;;;;;;;5040563;28;20032;-80
2022/04/17 11:42:09;;;;;;;3.42;0.90;;;;;;;;;;5044763;28;20021;-80
2022/04/17 11:44:36;;;;;;;0.75;0.43;;;;;;;;;;5046605;28;20021;-79
2022/04/17 11:47:02;;;;;;;1.02;0.30;;;;;;;;;;5042237;28;20195;-80
2022/04/17 11:49:32;;;;;;;2.92;0.68;;;;;;;;;;5046540;28;20036;-80
2022/04/17 11:52:09;;;;;;;3.30;1.40;;;;;;;;;;5043256;28;20433;-81
2022/04/17 11:54:35;;;;;;;3.03;0.98;;;;;;;;;;5042343;28;20036;-80
2022/04/17 11:57:01;;;;;;;1.67;0.63;;;;;;;;;;5039308;28;20025;-81
2022/04/17 11:59:27;;;;;;;0.43;0.30;;;;;;;;;;5049425;28;20530;-79
2022/04/17 12:02:09;;;;;;;2.17;0.65;;;;;;;;;;5046768;28;20036;-80
2022/04/17 12:04:36;;;;;;;1.15;0.82;;;;;;;;;;5045567;28;20493;-80
2022/04/17 12:07:02;;;;;;;2.00;0.80;;;;;;;;;;5045759;28;20044;-81
2022/04/17 12:09:28;;;;;;;8.13;1.02;;;;;;;;;;5043355;28;20025;-81
2022/04/17 12:11:54;;;;;;;1.10;0.57;;;;;;;;;;5048174;28;20492;-80
2022/04/17 12:14:33;;;;;;;0.73;0.52;;;;;;;;;;5046108;28;20032;-80
2022/04/17 12:16:59;;;;;;;0.90;0.70;;;;;;;;;;5035710;28;20029;-82
2022/04/17 12:19:25;;;;;;;1.55;0.55;;;;;;;;;;5051623;28;20601;-82
2022/04/17 12:21:52;;;;;;;1.48;0.70;;;;;;;;;;5049586;28;20036;-82
2022/04/17 12:24:18;;;;;;;2.35;0.60;;;;;;;;;;5044146;28;20116;-81
2022/04/17 12:26:46;;;;;;;1.63;0.90;;;;;;;;;;5043453;28;20385;-81
2022/04/17 12:29:12;;;;;;;2.80;0.85;;;15.90;57.00;;;;;;5031816;28;20036;-80
2022/04/17 12:31:38;;;;;;;2.35;0.80;;;;;;;;;;5041499;28;20029;-81
2022/04/17 12:34:13;;;;;;;3.70;0.73;;;;;;;;;;5043075;28;20484;-79
2022/04/17 12:36:42;;;;;;;0.80;0.40;;;;;;;;;;5053003;28;20048;-81
2022/04/17 12:39:08;;;;;;;1.50;0.98;;;;;;;;;;5057824;28;20025;-80
2022/04/17 12:41:40;;;;;;;2.30;1.40;;;;;;;;;;5042263;28;20029;-80
2022/04/17 12:44:06;;;;;;;1.58;0.88;;;;;;;;;;5045234;28;20273;-81
2022/04/17 12:46:33;;;;;;;5.07;0.82;;;;;;;;;;5052011;28;20032;-81
2022/04/17 12:49:09;;;;;;;1.90;0.82;;;;;;;;;;5048272;28;20055;-81
2022/04/17 12:51:36;;;;;;;3.35;0.60;;;;;;;;;;5050599;28;20033;-80
2022/04/17 12:54:02;;;;;;;1.80;1.15;;;;;;;;;;5051180;28;20036;-81
2022/04/17 12:56:29;;;;;;;8.00;1.98;;;;;;;;;;5049549;28;20405;-79
2022/04/17 12:58:55;;;;;;;2.05;1.58;;;;;;;;;;5046898;28;20041;-81
2022/04/17 13:01:21;;;;;;;1.15;0.90;;;;;;;;;;5052175;28;20020;-81
2022/04/17 13:03:48;;;;;;;1.52;0.90;;;;;;;;;;5052933;28;20025;-80
2022/04/17 13:06:21;;;;;;;1.00;0.50;;;;;;;;;;5049808;28;20041;-81
2022/04/17 13:08:47;;;;;;;;;;;;;;;;;;5045543;28;20029;-81
2022/04/17 13:11:19;;;;;;;0.90;0.40;;;;;;;;;;5049646;28;19916;-80
2022/04/17 13:13:51;;;;;;;1.27;0.70;;;;;;;;;;5050530;28;20032;-80
2022/04/17 13:16:17;;;;;;;1.35;0.52;;;;;;;;;;5049425;28;20144;-80
2022/04/17 13:18:43;;;;;;;1.13;0.63;;;;;;;;;;5047064;28;20476;-80
2022/04/17 13:21:09;;;;;;;0.88;0.50;;;;;;;;;;5051115;28;20152;-81
2022/04/17 13:23:35;;;;;;;1.13;0.40;;;;;;;;;;5045838;28;20447;-80
2022/04/17 13:26:01;;;;;;;3.00;0.75;;;;;;;;;;5050522;28;20036;-81
2022/04/17 13:28:27;;;;;;;0.88;0.43;;;;;;;;;;5047491;28;20028;-80
2022/04/17 13:30:53;;;;;;;3.47;0.85;;;;;;;;;;5051296;28;20067;-80
2022/04/17 13:33:19;;;;;;;0.88;0.40;;;;;;;;;;5050022;28;20523;-82
2022/04/17 13:35:46;;;;;;;0.93;0.50;;;;;;;;;;5052071;28;20492;-82
2022/04/17 13:38:13;;;;;;;2.78;0.70;;;;;;;;;;5041393;28;20488;-80
2022/04/17 13:40:39;;;;;;;4.38;0.57;;;;;;;;;;5045244;28;20032;-81
2022/04/17 13:43:05;;;;;;;0.77;0.50;;;;;;;;;;5048066;28;20084;-80
2022/04/17 13:45:31;;;;;;;4.93;0.50;;;;;;;;;;5045833;28;20040;-81
2022/04/17 13:47:57;;;;;;;2.08;0.55;;;;;;;;;;5047172;28;20027;-80
2022/04/17 13:50:24;;;;;;;1.85;0.80;;;;;;;;;;5050579;28;20092;-81
2022/04/17 13:52:50;;;;;;;4.18;0.93;;;16.00;73.80;;;;;;5043150;28;20040;-80
2022/04/17 13:55:19;;;;;;;1.98;0.80;;;15.20;53.70;;;;;;5051149;28;20029;-80
2022/04/17 13:57:45;;;;;;;1.20;0.50;;;;;;;;;;5049426;28;20116;-82
2022/04/17 14:00:12;;;;;;;1.40;0.50;;;;;;;;;;5050673;28;20044;-80
2022/04/17 14:02:38;;;;;;;1.42;0.50;;;;;;;;;;5052299;28;20032;-81
2022/04/17 14:05:04;;;;;;;1.20;0.60;;;16.00;54.90;;;;;;5047546;28;20057;-81
2022/04/17 14:07:31;;;;;;;1.50;0.73;;;;;;;;;;5050742;28;20032;-80
2022/04/17 14:09:57;;;;;;;0.90;0.47;;;;;;;;;;5045367;28;20033;-80
2022/04/17 14:12:24;;;;;;;0.80;0.55;;;;;;;;;;5046331;28;20033;-81
2022/04/17 14:14:55;;;;;;;1.02;0.52;;;;;;;;;;5050589;28;20021;-81
2022/04/17 14:17:21;;;;;;;2.47;0.40;;;;;;;;;;5045544;28;20546;-80
2022/04/17 14:19:47;;;;;;;1.27;0.57;;;;;;;;;;5047863;28;20033;-81
2022/04/17 14:22:13;;;;;;;0.98;0.43;;;;;;;;;;5049873;28;20384;-81
2022/04/17 14:24:39;;;;;;;1.10;0.75;;;;;;;;;;5049134;28;20051;-80
2022/04/17 14:27:05;;;;;;;3.65;0.77;;;;;;;;;;5047799;28;20021;-80
2022/04/17 14:29:31;;;;;;;0.80;0.43;;;;;;;;;;5049813;28;20032;-80
2022/04/17 14:31:57;;;;;;;0.80;0.40;;;;;;;;;;5051010;28;20112;-78
2022/04/17 14:34:23;;;;;;;2.47;0.85;;;;;;;;;;5047447;28;20449;-79
2022/04/17 14:36:49;;;;;;;1.73;0.50;;;;;;;;;;5046170;28;20017;-81
2022/04/17 14:39:15;;;;;;;0.85;0.32;;;;;;;;;;5049059;28;20079;-80
2022/04/17 14:41:43;;;;;;;0.57;0.40;;;;;;;;;;5045620;28;20456;-83
2022/04/17 14:44:09;;;;;;;0.40;0.30;;;;;;;;;;5050515;28;20033;-81
2022/04/17 14:46:35;;;;;;;1.05;0.40;;;;;;;;;;5050254;28;20124;-81
2022/04/17 14:49:01;;;;;;;1.13;0.50;;;;;;;;;;5049038;28;20093;-81
2022/04/17 14:51:27;;;;;;;1.85;0.80;;;;;;;;;;5047653;28;20048;-79
2022/04/17 14:53:53;;;;;;;3.30;1.23;;;;;;;;;;5047307;28;20029;-81
2022/04/17 14:56:20;;;;;;;1.10;0.55;;;;;;;;;;5051064;28;20155;-80